Time;durP1;ratioP1;P1;durP2;ratioP2;P2;SDS_P1;SDS_P2;PMS_P1;PMS_P2;Temp;Humidity;BMP_temperature;BMP_pressure;BME280_temperature;BME280_humidity;BME280_pressure;Samples;Min_cycle;Max_cycle;Signal;HPM_P1;HPM_P2
2022/02/07 00:00:02;;;;;;;0.60;0.60;;;;;;;0.77;94.68;95961.31;29374;211;63004;-56
2022/02/07 00:01:31;;;;;;;0.60;0.60;;;;;;;0.75;94.63;95982.09;29374;215;63004;-59
2022/02/07 00:02:05;;;;;;;0.60;0.60;;;;;;;0.78;94.79;95981.59;29374;218;63008;-58
2022/02/07 00:03:02;;;;;;;0.70;0.70;;;;;;;0.78;94.59;95997.63;29374;222;63005;-51
2022/02/07 00:03:43;;;;;;;0.60;0.60;;;;;;;0.80;94.26;95990.97;29396;283;63009;-70
2022/02/07 00:04:20;;;;;;;0.60;0.60;;;;;;;0.83;93.88;95984.31;29396;203;63005;-59
2022/02/07 00:04:51;;;;;;;0.60;0.60;;;;;;;0.82;94.03;95988.88;29374;229;63009;-55
2022/02/07 00:05:26;;;;;;;0.60;0.60;;;;;;;0.83;93.97;95981.66;29374;228;63005;-58
2022/02/07 00:05:57;;;;;;;0.60;0.60;;;;;;;0.85;93.79;95990.22;29372;214;64013;-59
2022/02/07 00:06:29;;;;;;;0.60;0.60;;;;;;;0.85;93.61;95982.22;29372;296;64009;-59
2022/02/07 00:07:01;;;;;;;0.60;0.60;;;;;;;0.86;93.36;95978.47;29374;218;63009;-63
2022/02/07 00:07:32;;;;;;;0.60;0.60;;;;;;;0.85;93.65;95974.19;29374;232;63004;-66
2022/02/07 00:08:05;;;;;;;0.60;0.60;;;;;;;0.88;93.43;95973.69;29374;256;63009;-60
2022/02/07 00:08:36;;;;;;;0.60;0.60;;;;;;;0.89;93.37;95972.62;29374;257;63004;-54
2022/02/07 00:09:08;;;;;;;0.60;0.60;;;;;;;0.89;93.37;95968.09;29374;260;63008;-57
2022/02/07 00:09:39;;;;;;;0.60;0.60;;;;;;;0.91;93.59;95965.19;29374;205;63004;-55
2022/02/07 00:10:10;;;;;;;0.70;0.70;;;;;;;0.91;93.39;95973.19;29374;203;63009;-73
2022/02/07 00:10:41;;;;;;;0.60;0.60;;;;;;;0.87;93.36;95964.06;29374;214;63005;-52
2022/02/07 00:11:16;;;;;;;0.60;0.60;;;;;;;0.87;93.80;95969.41;29375;203;63009;-62
2022/02/07 00:11:47;;;;;;;0.60;0.60;;;;;;;0.88;93.86;95960.34;29373;197;64009;-58
2022/02/07 00:12:18;;;;;;;0.60;0.60;;;;;;;0.88;93.58;95961.16;29375;222;63018;-59
2022/02/07 00:12:51;;;;;;;0.60;0.60;;;;;;;0.88;93.50;95947.78;29375;212;63005;-58
2022/02/07 00:13:22;;;;;;;0.60;0.60;;;;;;;0.90;93.61;95955.56;29375;204;63009;-54
2022/02/07 00:13:58;;;;;;;0.60;0.60;;;;;;;0.90;93.03;95936.84;29375;209;63004;-61
2022/02/07 00:14:29;;;;;;;0.60;0.60;;;;;;;0.87;93.46;95932.03;29373;237;64013;-57
2022/02/07 00:15:00;;;;;;;0.60;0.60;;;;;;;0.88;93.27;95933.63;29375;203;63004;-57
2022/02/07 00:15:31;;;;;;;0.60;0.60;;;;;;;0.87;93.68;95938.16;29375;233;63009;-56
2022/02/07 00:16:03;;;;;;;0.60;0.60;;;;;;;0.90;93.63;95942.19;29375;222;63004;-56
2022/02/07 00:16:36;;;;;;;0.60;0.60;;;;;;;0.93;93.41;95952.38;29373;233;64013;-64
2022/02/07 00:17:08;;;;;;;0.60;0.60;;;;;;;0.94;93.32;95959.34;29375;228;63004;-56
2022/02/07 00:17:39;;;;;;;0.60;0.60;;;;;;;0.94;93.11;95951.31;29375;207;63009;-57
2022/02/07 00:18:10;;;;;;;0.60;0.60;;;;;;;0.92;93.33;95950.78;29375;223;63005;-59
2022/02/07 00:18:42;;;;;;;0.60;0.60;;;;;;;0.94;92.89;95954.00;29375;229;63015;-53
2022/02/07 00:19:20;;;;;;;0.68;0.68;;;;;;;0.93;92.93;95944.38;29375;204;63005;-67
2022/02/07 00:19:51;;;;;;;0.60;0.60;;;;;;;0.90;92.87;95947.53;29375;202;63009;-56
2022/02/07 00:20:24;;;;;;;0.60;0.60;;;;;;;0.88;93.36;95960.34;29376;203;63005;-68
2022/02/07 00:20:57;;;;;;;0.60;0.60;;;;;;;0.89;92.94;95962.75;29374;251;64013;-78
2022/02/07 00:21:28;;;;;;;0.60;0.60;;;;;;;0.90;92.84;95952.88;29376;274;63004;-62
2022/02/07 00:22:02;;;;;;;0.60;0.60;;;;;;;0.90;92.71;95952.88;29376;219;63009;-62
2022/02/07 00:22:33;;;;;;;0.60;0.60;;;;;;;0.85;93.14;95960.84;29376;237;63004;-71
2022/02/07 00:23:05;;;;;;;0.60;0.60;;;;;;;0.88;93.00;95974.50;29376;215;63009;-55
2022/02/07 00:23:36;;;;;;;0.70;0.70;;;;;;;0.89;93.14;95989.47;29374;202;64008;-56
2022/02/07 00:24:07;;;;;;;0.60;0.60;;;;;;;0.92;93.06;95999.66;29376;203;63014;-62
2022/02/07 00:24:39;;;;;;;0.60;0.60;;;;;;;0.93;92.96;95995.12;29376;286;63005;-60
2022/02/07 00:25:10;;;;;;;0.60;0.60;;;;;;;0.93;92.70;95997.78;29374;231;64014;-59
2022/02/07 00:25:43;;;;;;;0.60;0.60;;;;;;;0.94;93.08;95996.72;29376;204;63005;-62
2022/02/07 00:26:17;;;;;;;0.60;0.60;;;;;;;0.95;92.58;96003.69;29376;229;63009;-61
2022/02/07 00:26:48;;;;;;;0.60;0.60;;;;;;;0.90;92.82;96008.97;29376;205;63005;-71
2022/02/07 00:27:19;;;;;;;0.60;0.60;;;;;;;0.91;92.75;95999.91;29376;260;63009;-64
2022/02/07 00:27:50;;;;;;;0.60;0.60;;;;;;;0.95;92.75;95993.00;29375;225;64005;-56
2022/02/07 00:28:23;;;;;;;0.60;0.60;;;;;;;0.97;92.42;95991.69;29376;199;63009;-58
2022/02/07 00:28:54;;;;;;;0.60;0.60;;;;;;;0.99;92.80;95988.75;29376;249;63004;-65
2022/02/07 00:29:27;;;;;;;0.60;0.60;;;;;;;1.00;92.61;95990.38;29376;211;63004;-68
2022/02/07 00:29:58;;;;;;;0.60;0.60;;;;;;;0.97;92.32;95980.19;29374;249;64009;-72
2022/02/07 00:30:29;;;;;;;0.60;0.60;;;;;;;1.00;92.62;95988.50;29376;206;63009;-56
2022/02/07 00:31:01;;;;;;;0.60;0.60;;;;;;;1.01;92.65;95978.63;29376;286;63004;-59
2022/02/07 00:31:33;;;;;;;0.60;0.60;;;;;;;1.01;92.92;95989.31;29376;234;63009;-60
2022/02/07 00:32:07;;;;;;;0.60;0.60;;;;;;;0.98;92.61;95984.47;29376;260;63005;-57
2022/02/07 00:32:39;;;;;;;0.60;0.60;;;;;;;0.98;93.39;95960.44;29374;199;64014;-60
2022/02/07 00:33:10;;;;;;;0.60;0.60;;;;;;;1.01;92.94;95975.97;29374;231;64009;-56
2022/02/07 00:33:41;;;;;;;0.60;0.60;;;;;;;1.02;92.92;95960.75;29375;267;63009;-58
2022/02/07 00:34:12;;;;;;;0.60;0.60;;;;;;;1.04;92.67;95954.06;29375;203;63005;-71
2022/02/07 00:34:43;;;;;;;0.60;0.60;;;;;;;1.06;92.79;95957.28;29375;214;63009;-63
2022/02/07 00:35:18;;;;;;;3.45;3.20;;;;;;;1.04;92.68;95959.38;29375;250;63010;-60
2022/02/07 00:35:50;;;;;;;0.60;0.60;;;;;;;1.05;92.59;95966.34;29375;219;63009;-63
2022/02/07 00:36:21;;;;;;;0.60;0.60;;;;;;;1.06;92.74;95970.63;29375;210;63004;-58
2022/02/07 00:36:52;;;;;;;0.60;0.60;;;;;;;1.06;92.78;95978.66;29375;227;63009;-76
2022/02/07 00:37:25;;;;;;;0.60;0.60;;;;;;;1.05;92.82;95977.03;29373;204;64009;-61
2022/02/07 00:38:02;;;;;;;0.60;0.60;;;;;;;1.06;93.10;95984.00;29375;261;63009;-66
2022/02/07 00:38:33;;;;;;;0.60;0.60;;;;;;;1.05;93.08;95990.38;29375;227;63004;-67
2022/02/07 00:39:11;;;;;;;0.60;0.60;;;;;;;1.04;92.97;95980.00;29375;280;63009;-64
2022/02/07 00:39:51;;;;;;;0.60;0.60;;;;;;;1.05;93.03;95990.38;29375;211;63005;-62
2022/02/07 00:40:39;;;;;;;0.60;0.60;;;;;;;1.07;92.71;95990.94;29375;202;63009;-73
2022/02/07 00:41:27;;;;;;;0.60;0.60;;;;;;;1.05;92.90;95997.59;29373;214;64009;-54
2022/02/07 00:42:03;;;;;;;0.65;0.65;;;;;;;1.05;93.17;96000.28;29375;281;63009;-56
2022/02/07 00:42:40;;;;;;;0.60;0.60;;;;;;;1.06;92.74;95989.34;29375;231;63005;-61
2022/02/07 00:43:28;;;;;;;0.60;0.60;;;;;;;1.05;92.94;95989.59;29375;212;63009;-63
2022/02/07 00:44:09;;;;;;;0.60;0.60;;;;;;;1.07;92.62;95995.47;29375;211;63004;-60
2022/02/07 00:44:40;;;;;;;;;;;;;;;1.02;92.95;95988.25;29974;983;28004;-64
2022/02/07 00:45:25;;;;;;;0.60;0.60;;;;;;;1.03;92.83;96003.22;29422;221;63004;-62
2022/02/07 00:46:04;;;;;;;0.60;0.60;;;;;;;1.05;92.83;95995.72;29396;232;63000;-63
2022/02/07 00:46:39;;;;;;;0.60;0.60;;;;;;;1.02;92.62;96012.28;29375;228;63005;-63
2022/02/07 00:47:10;;;;;;;0.60;0.60;;;;;;;1.03;92.71;96016.59;29375;240;63001;-58
2022/02/07 00:47:42;;;;;;;0.60;0.60;;;;;;;1.02;92.55;96014.97;29375;235;63005;-61
2022/02/07 00:48:13;;;;;;;0.60;0.60;;;;;;;0.99;92.46;95999.44;29375;202;63001;-64
2022/02/07 00:48:45;;;;;;;0.60;0.60;;;;;;;0.99;92.63;96010.13;29375;199;63005;-68
2022/02/07 00:49:18;;;;;;;0.60;0.60;;;;;;;0.99;92.90;96002.13;29373;205;64009;-57
2022/02/07 00:49:49;;;;;;;0.70;0.70;;;;;;;1.00;92.88;96017.09;29373;198;64013;-63
2022/02/07 00:50:21;;;;;;;0.95;0.90;;;;;;;1.01;92.99;96013.34;29375;218;63005;-69
2022/02/07 00:50:55;;;;;;;0.60;0.60;;;;;;;1.02;92.77;96024.84;29375;267;63009;-72
2022/02/07 00:51:27;;;;;;;0.60;0.60;;;;;;;1.02;92.96;96035.53;29375;249;63004;-67
2022/02/07 00:51:58;;;;;;;0.60;0.60;;;;;;;1.04;92.38;96028.06;29375;198;63009;-56
2022/02/07 00:52:31;;;;;;;0.60;0.60;;;;;;;1.04;92.42;96023.50;29375;202;63004;-67
2022/02/07 00:53:03;;;;;;;0.60;0.60;;;;;;;1.05;92.16;96019.78;29375;231;63009;-53
2022/02/07 00:53:34;;;;;;;0.60;0.60;;;;;;;1.06;92.64;96034.75;29375;218;63011;-61
2022/02/07 00:54:05;;;;;;;0.60;0.60;;;;;;;1.06;92.41;96031.28;29375;202;63008;-59
2022/02/07 00:54:36;;;;;;;0.60;0.60;;;;;;;1.05;92.63;96041.16;29373;212;64009;-64
2022/02/07 00:55:08;;;;;;;0.60;0.60;;;;;;;1.04;92.47;96028.84;29375;216;63009;-70
2022/02/07 00:55:40;;;;;;;0.60;0.60;;;;;;;1.03;92.63;96016.59;29375;227;63011;-64
2022/02/07 00:56:11;;;;;;;0.60;0.60;;;;;;;1.03;92.50;96016.59;29375;259;63009;-65
2022/02/07 00:56:44;;;;;;;0.60;0.60;;;;;;;1.01;92.89;96002.66;29376;214;63005;-54
2022/02/07 00:57:16;;;;;;;0.60;0.60;;;;;;;1.03;92.68;96005.91;29375;313;63009;-68
2022/02/07 00:57:47;;;;;;;0.60;0.60;;;;;;;1.04;92.71;96017.38;29375;202;63005;-57
2022/02/07 00:58:19;;;;;;;0.57;0.57;;;;;;;1.05;92.53;96030.47;29375;219;63009;-64
2022/02/07 00:58:50;;;;;;;0.60;0.60;;;;;;;1.02;92.29;96025.66;29375;211;63004;-58
2022/02/07 00:59:21;;;;;;;0.60;0.60;;;;;;;1.03;92.47;96042.50;29373;243;64013;-57
2022/02/07 00:59:53;;;;;;;0.60;0.60;;;;;;;0.99;92.42;96037.66;29375;242;63004;-63
2022/02/07 01:00:25;;;;;;;0.60;0.60;;;;;;;1.00;92.50;96051.81;29373;217;64013;-59
2022/02/07 01:00:56;;;;;;;0.60;0.60;;;;;;;1.00;92.74;96054.47;29375;243;63004;-71
2022/02/07 01:01:30;;;;;;;0.60;0.60;;;;;;;1.00;92.67;96049.94;29375;256;63008;-58
2022/02/07 01:02:03;;;;;;;0.60;0.60;;;;;;;0.98;93.06;96057.41;29375;246;63005;-67
2022/02/07 01:02:35;;;;;;;0.60;0.60;;;;;;;0.97;92.81;96046.97;29375;229;63009;-67
2022/02/07 01:03:06;;;;;;;0.60;0.60;;;;;;;0.98;93.09;96045.91;29375;199;63005;-68
2022/02/07 01:03:38;;;;;;;0.60;0.60;;;;;;;0.98;92.78;96043.25;29375;219;63009;-59
2022/02/07 01:04:10;;;;;;;0.60;0.60;;;;;;;1.00;92.49;96059.81;29375;210;63000;-65
2022/02/07 01:04:41;;;;;;;0.60;0.60;;;;;;;1.00;92.75;96057.16;29375;230;63009;-53
2022/02/07 01:05:14;;;;;;;0.60;0.60;;;;;;;0.99;92.73;96052.87;29373;202;64009;-65
2022/02/07 01:05:46;;;;;;;0.60;0.60;;;;;;;0.98;92.65;96046.72;29375;251;63009;-55
2022/02/07 01:06:19;;;;;;;0.60;0.60;;;;;;;0.96;92.70;96048.03;29373;202;64009;-54
2022/02/07 01:06:52;;;;;;;0.60;0.60;;;;;;;0.99;92.99;96036.84;29375;202;63009;-54
2022/02/07 01:07:27;;;;;;;0.62;0.62;;;;;;;0.95;93.04;96036.53;29375;253;63004;-56
2022/02/07 01:08:00;;;;;;;0.60;0.60;;;;;;;0.92;93.41;96039.72;29373;196;64013;-54
2022/02/07 01:08:42;;;;;;;0.60;0.60;;;;;;;0.91;93.57;96050.66;29375;264;63004;-63
2022/02/07 01:09:21;;;;;;;0.60;0.60;;;;;;;0.94;93.55;96050.94;29373;198;64013;-67
2022/02/07 01:09:53;;;;;;;0.60;0.60;;;;;;;0.97;93.34;96049.66;29375;211;63005;-55
2022/02/07 01:10:40;;;;;;;0.60;0.60;;;;;;;0.99;92.91;96040.31;29375;241;63009;-55
2022/02/07 01:11:18;;;;;;;0.60;0.60;;;;;;;1.00;93.10;96049.12;29375;202;63005;-55
2022/02/07 01:12:03;;;;;;;0.60;0.60;;;;;;;1.03;92.58;96048.62;29375;215;63009;-57
2022/02/07 01:13:00;;;;;;;0.70;0.70;;;;;;;1.06;92.01;96041.94;29375;225;63011;-58
2022/02/07 01:14:03;;;;;;;0.60;0.60;;;;;;;1.12;91.56;96052.44;29375;218;63009;-64
2022/02/07 01:15:39;;;;;;;0.60;0.60;;;;;;;1.05;91.23;96045.69;29397;272;63008;-55
2022/02/07 01:16:32;;;;;;;0.60;0.60;;;;;;;1.02;91.99;96047.03;29396;243;63004;-65
2022/02/07 01:19:19;;;;;;;0.70;0.70;;;;;;;1.04;91.25;96074.25;29397;216;63009;-58
2022/02/07 01:21:22;;;;;;;0.65;0.65;;;;;;;1.15;90.92;96078.66;29375;240;63009;-67
2022/02/07 01:24:01;;;;;;;0.70;0.70;;;;;;;1.24;90.38;96095.84;29397;211;63005;-59
2022/02/07 01:47:29;;;;;;;0.60;0.60;;;;;;;1.38;88.79;96162.28;29373;208;63005;-57
2022/02/07 01:50:59;;;;;;;0.60;0.60;;;;;;;1.40;88.00;96163.59;29373;282;63004;-67
2022/02/07 01:53:41;;;;;;;0.60;0.60;;;;;;;1.48;87.84;96167.69;29373;228;63008;-65
2022/02/07 01:54:26;;;;;;;0.60;0.60;;;;;;;1.51;88.11;96181.38;29373;254;63005;-60
2022/02/07 01:55:12;;;;;;;0.60;0.60;;;;;;;1.43;88.10;96186.34;29373;246;63009;-66
2022/02/07 01:55:48;;;;;;;0.60;0.60;;;;;;;1.50;87.70;96192.31;29373;212;63005;-64
2022/02/07 01:56:25;;;;;;;0.70;0.70;;;;;;;1.56;87.15;96197.47;29371;228;64013;-64
2022/02/07 01:56:57;;;;;;;0.62;0.62;;;;;;;1.57;87.34;96198.28;29373;238;63005;-55
2022/02/07 01:57:28;;;;;;;0.60;0.60;;;;;;;1.58;87.20;96202.56;29373;218;63009;-70
2022/02/07 01:58:00;;;;;;;0.60;0.60;;;;;;;1.58;87.61;96213.25;29373;221;63004;-62
2022/02/07 01:58:31;;;;;;;0.60;0.60;;;;;;;1.58;87.25;96194.53;29371;206;64030;-68
2022/02/07 01:59:03;;;;;;;0.60;0.60;;;;;;;1.60;86.79;96205.78;29373;224;63004;-66
2022/02/07 01:59:35;;;;;;;0.60;0.60;;;;;;;1.56;86.87;96208.16;29373;213;63009;-68
2022/02/07 02:00:08;;;;;;;0.70;0.70;;;;;;;1.53;87.33;96208.66;29373;218;63004;-58
2022/02/07 02:00:41;;;;;;;0.60;0.60;;;;;;;1.53;88.05;96214.00;29373;227;63008;-58
2022/02/07 02:01:13;;;;;;;0.60;0.60;;;;;;;1.57;87.94;96225.81;29373;202;63004;-59
2022/02/07 02:01:44;;;;;;;0.60;0.60;;;;;;;1.59;87.07;96215.69;29371;239;64014;-57
2022/02/07 02:02:16;;;;;;;0.60;0.60;;;;;;;1.65;86.36;96213.87;29371;315;64009;-66
2022/02/07 02:02:47;;;;;;;0.60;0.60;;;;;;;1.69;85.70;96212.31;29373;211;63009;-53
2022/02/07 02:03:19;;;;;;;0.60;0.60;;;;;;;1.70;85.56;96224.62;29373;329;63005;-57
2022/02/07 02:03:51;;;;;;;0.60;0.60;;;;;;;1.73;85.70;96223.31;29373;218;63009;-63
2022/02/07 02:04:25;;;;;;;0.60;0.60;;;;;;;1.75;85.54;96227.31;29373;276;63005;-58
2022/02/07 02:04:56;;;;;;;0.60;0.60;;;;;;;1.72;85.90;96229.72;29373;221;63014;-57
2022/02/07 02:05:31;;;;;;;0.60;0.60;;;;;;;1.75;85.51;96227.31;29373;202;63004;-56
2022/02/07 02:06:06;;;;;;;0.60;0.60;;;;;;;1.74;85.47;96239.06;29373;218;63009;-68
2022/02/07 02:06:39;;;;;;;0.60;0.60;;;;;;;1.73;85.56;96250.06;29371;208;64009;-61
2022/02/07 02:07:10;;;;;;;0.80;0.80;;;;;;;1.77;85.07;96235.09;29373;205;63009;-77
2022/02/07 02:07:48;;;;;;;0.60;0.60;;;;;;;1.80;84.97;96242.59;29371;309;64009;-66
2022/02/07 02:08:20;;;;;;;0.82;0.82;;;;;;;1.81;84.65;96250.37;29373;230;63008;-54
2022/02/07 02:08:55;;;;;;;0.60;0.60;;;;;;;1.79;84.85;96249.81;29373;287;63005;-60
2022/02/07 02:09:28;;;;;;;0.60;0.60;;;;;;;1.78;85.05;96264.25;29373;237;63009;-57
2022/02/07 02:09:59;;;;;;;0.60;0.60;;;;;;;1.80;85.36;96264.81;29373;226;63005;-69
2022/02/07 02:10:38;;;;;;;0.70;0.70;;;;;;;1.75;85.11;96259.41;29373;216;63005;-66
2022/02/07 02:11:09;;;;;;;0.70;0.70;;;;;;;1.81;84.71;96276.31;29373;225;63005;-64
2022/02/07 02:11:42;;;;;;;0.60;0.60;;;;;;;1.82;84.10;96270.72;29373;236;63005;-56
2022/02/07 02:12:13;;;;;;;0.60;0.60;;;;;;;1.86;84.33;96265.69;29373;196;63004;-60
2022/02/07 02:13:07;;;;;;;0.60;0.60;;;;;;;1.87;84.28;96259.28;29371;298;64013;-65
2022/02/07 02:13:53;;;;;;;0.60;0.60;;;;;;;1.89;84.07;96271.34;29372;248;63004;-57
2022/02/07 02:16:31;;;;;;;0.60;0.60;;;;;;;1.90;84.71;96266.78;29395;212;63009;-60
2022/02/07 02:17:50;;;;;;;0.73;0.73;;;;;;;1.89;84.56;96267.84;29395;222;63005;-52
2022/02/07 02:32:53;;;;;;;0.70;0.70;;;;;;;1.96;84.40;96309.41;29373;261;63009;-65
2022/02/07 02:36:29;;;;;;;0.60;0.60;;;;;;;1.90;85.49;96299.69;29373;223;63009;-63
2022/02/07 02:37:15;;;;;;;0.60;0.60;;;;;;;1.86;85.97;96293.22;29373;218;63004;-60
2022/02/07 02:38:01;;;;;;;0.60;0.60;;;;;;;1.84;86.05;96303.38;29371;199;64013;-60
2022/02/07 02:45:37;;;;;;;0.60;0.60;;;;;;;1.93;85.21;96352.72;29373;217;63011;-65
2022/02/07 02:46:09;;;;;;;0.60;0.60;;;;;;;1.86;85.95;96362.78;29373;212;63019;-60
2022/02/07 02:46:40;;;;;;;0.60;0.60;;;;;;;1.84;86.22;96356.88;29373;260;63005;-69
2022/02/07 02:47:19;;;;;;;0.60;0.60;;;;;;;1.80;86.34;96358.44;29373;212;63009;-59
2022/02/07 02:47:50;;;;;;;0.60;0.60;;;;;;;1.79;86.60;96351.47;29371;237;64009;-64
2022/02/07 02:48:24;;;;;;;0.60;0.60;;;;;;;1.77;86.63;96350.91;29373;198;63009;-65
2022/02/07 02:49:01;;;;;;;0.60;0.60;;;;;;;1.75;87.15;96349.53;29373;219;63005;-56
2022/02/07 02:49:43;;;;;;;0.60;0.60;;;;;;;1.71;87.18;96354.59;29373;204;63009;-62
2022/02/07 02:50:28;;;;;;;0.60;0.60;;;;;;;1.70;87.72;96353.00;29371;202;64000;-64
2022/02/07 02:51:06;;;;;;;0.60;0.60;;;;;;;1.69;87.55;96351.38;29373;197;63009;-65
2022/02/07 02:51:38;;;;;;;0.60;0.60;;;;;;;1.72;87.98;96350.87;29373;203;63004;-66
2022/02/07 02:52:10;;;;;;;0.60;0.60;;;;;;;1.71;87.46;96348.44;29371;224;64013;-58
2022/02/07 02:52:41;;;;;;;0.60;0.60;;;;;;;1.66;87.55;96351.88;29373;199;63004;-64
2022/02/07 02:53:15;;;;;;;0.60;0.60;;;;;;;1.63;88.10;96352.38;29371;241;64013;-58
2022/02/07 02:53:46;;;;;;;0.70;0.70;;;;;;;1.60;88.09;96352.84;29371;223;64009;-58
2022/02/07 02:54:17;;;;;;;0.60;0.60;;;;;;;1.52;88.21;96345.25;29373;263;63009;-58
2022/02/07 02:54:48;;;;;;;0.60;0.60;;;;;;;1.46;88.97;96354.28;29373;231;63011;-67
2022/02/07 02:55:20;;;;;;;0.60;0.60;;;;;;;1.45;89.15;96344.63;29373;204;63013;-69
2022/02/07 02:55:52;;;;;;;0.70;0.70;;;;;;;1.59;89.16;96356.59;29373;221;63005;-65
2022/02/07 02:56:24;;;;;;;0.60;0.60;;;;;;;1.65;87.72;96366.28;29373;262;63009;-57
2022/02/07 02:56:55;;;;;;;0.70;0.70;;;;;;;1.79;86.36;96358.69;29373;221;63005;-56
2022/02/07 02:57:26;;;;;;;0.60;0.60;;;;;;;1.84;85.87;96358.75;29373;234;63009;-62
2022/02/07 02:57:58;;;;;;;0.60;0.60;;;;;;;1.86;86.22;96360.13;29373;337;63004;-54
2022/02/07 02:58:30;;;;;;;0.60;0.60;;;;;;;1.86;86.01;96357.44;29371;323;64013;-55
2022/02/07 02:59:01;;;;;;;0.60;0.60;;;;;;;1.90;86.11;96355.88;29373;295;63004;-64
2022/02/07 02:59:32;;;;;;;0.60;0.60;;;;;;;1.89;86.24;96373.00;29373;250;63009;-57
2022/02/07 03:00:05;;;;;;;0.60;0.60;;;;;;;1.88;86.23;96371.38;29373;285;63004;-69
2022/02/07 03:00:37;;;;;;;0.60;0.60;;;;;;;1.85;86.42;96371.06;29373;261;63004;-67
2022/02/07 03:01:09;;;;;;;0.60;0.60;;;;;;;1.80;86.52;96376.34;29373;254;63005;-68
2022/02/07 03:01:40;;;;;;;0.60;0.60;;;;;;;1.83;87.08;96368.62;29373;199;63014;-58
2022/02/07 03:02:12;;;;;;;0.60;0.60;;;;;;;1.84;86.71;96374.78;29373;300;63005;-60
2022/02/07 03:02:43;;;;;;;0.60;0.60;;;;;;;1.84;86.68;96378.28;29373;224;63009;-63
2022/02/07 03:03:15;;;;;;;0.60;0.60;;;;;;;1.89;86.37;96378.34;29373;274;63005;-77
2022/02/07 03:03:48;;;;;;;0.60;0.60;;;;;;;1.95;85.60;96377.34;29371;248;64013;-65
2022/02/07 03:04:19;;;;;;;0.60;0.60;;;;;;;1.95;85.49;96374.69;29373;220;63004;-60
2022/02/07 03:04:53;;;;;;;0.60;0.60;;;;;;;1.95;85.70;96377.34;29373;303;63009;-61
2022/02/07 03:05:26;;;;;;;0.70;0.70;;;;;;;1.97;85.71;96375.22;29373;260;63004;-63
2022/02/07 03:05:57;;;;;;;0.60;0.60;;;;;;;1.93;85.90;96382.13;29373;257;63009;-62
2022/02/07 03:06:28;;;;;;;0.60;0.60;;;;;;;1.95;85.69;96376.53;29373;337;63004;-55
2022/02/07 03:06:59;;;;;;;0.60;0.60;;;;;;;1.94;85.58;96380.28;29373;232;63008;-68
2022/02/07 03:07:30;;;;;;;0.60;0.60;;;;;;;1.87;86.03;96388.50;29373;215;63004;-59
2022/02/07 03:08:01;;;;;;;0.60;0.60;;;;;;;1.87;86.43;96385.00;29373;319;63008;-67
2022/02/07 03:08:33;;;;;;;0.60;0.60;;;;;;;1.86;86.55;96381.50;29373;266;63001;-55
2022/02/07 03:09:12;;;;;;;0.60;0.60;;;;;;;1.91;86.30;96396.81;29371;358;64014;-63
2022/02/07 03:09:49;;;;;;;0.60;0.60;;;;;;;1.94;85.82;96393.66;29373;239;63005;-63
2022/02/07 03:10:31;;;;;;;0.60;0.60;;;;;;;1.94;85.98;96391.78;29373;203;63009;-61
2022/02/07 03:11:08;;;;;;;0.60;0.60;;;;;;;1.96;85.76;96394.22;29373;209;63005;-58
2022/02/07 03:11:40;;;;;;;0.60;0.60;;;;;;;1.97;85.39;96403.84;29373;198;63009;-58
2022/02/07 03:12:13;;;;;;;0.60;0.60;;;;;;;1.93;85.65;96400.88;29373;243;63004;-62
2022/02/07 03:12:58;;;;;;;0.60;0.60;;;;;;;1.93;85.55;96411.56;29373;215;63009;-61
2022/02/07 03:13:45;;;;;;;0.60;0.60;;;;;;;1.95;85.71;96416.66;29373;272;63004;-69
2022/02/07 03:14:23;;;;;;;0.62;0.62;;;;;;;1.97;85.00;96412.69;29371;219;64013;-55
2022/02/07 03:15:12;;;;;;;0.50;0.50;;;;;;;1.99;84.87;96409.78;29373;211;63004;-53
2022/02/07 03:16:39;;;;;;;0.60;0.60;;;;;;;2.02;84.90;96425.31;29372;226;63005;-65
2022/02/07 03:17:11;;;;;;;0.60;0.60;;;;;;;2.00;84.98;96424.75;29371;267;64013;-59
2022/02/07 03:17:42;;;;;;;0.60;0.60;;;;;;;1.99;84.45;96421.28;29373;269;63005;-60
2022/02/07 03:18:13;;;;;;;0.93;0.93;;;;;;;2.02;84.45;96436.03;29373;202;63009;-68
2022/02/07 03:18:44;;;;;;;0.65;0.65;;;;;;;1.99;84.42;96426.63;29373;205;63005;-71
2022/02/07 03:19:17;;;;;;;0.60;0.60;;;;;;;1.97;84.34;96418.03;29373;202;63004;-61
2022/02/07 03:19:48;;;;;;;0.60;0.60;;;;;;;1.96;84.63;96427.13;29371;197;64009;-61
2022/02/07 03:20:20;;;;;;;0.60;0.60;;;;;;;1.97;84.60;96427.94;29373;227;63009;-81
2022/02/07 03:20:52;;;;;;;0.60;0.60;;;;;;;1.99;84.75;96431.19;29371;252;64009;-61
2022/02/07 03:21:23;;;;;;;0.60;0.60;;;;;;;1.97;84.80;96427.94;29373;204;63009;-70
2022/02/07 03:21:54;;;;;;;0.60;0.60;;;;;;;1.92;85.26;96426.00;29373;213;63004;-58
2022/02/07 03:22:26;;;;;;;0.60;0.60;;;;;;;1.90;85.38;96428.13;29373;211;63008;-67
2022/02/07 03:22:57;;;;;;;0.60;0.60;;;;;;;1.93;85.75;96432.97;29373;202;63001;-60
2022/02/07 03:23:28;;;;;;;0.57;0.57;;;;;;;1.89;85.64;96421.16;29373;222;63009;-59
2022/02/07 03:24:01;;;;;;;0.60;0.60;;;;;;;1.87;86.11;96428.63;29373;203;63005;-62
2022/02/07 03:24:32;;;;;;;0.60;0.60;;;;;;;1.88;85.66;96429.44;29373;288;63009;-58
2022/02/07 03:25:04;;;;;;;0.60;0.60;;;;;;;1.87;86.01;96439.31;29373;198;63005;-57
2022/02/07 03:25:35;;;;;;;0.60;0.60;;;;;;;1.91;85.56;96431.59;29371;210;64013;-54
2022/02/07 03:26:12;;;;;;;0.60;0.60;;;;;;;1.93;85.70;96437.50;29373;225;63005;-58
2022/02/07 03:26:45;;;;;;;0.60;0.60;;;;;;;1.98;84.99;96434.91;29373;216;63009;-67
2022/02/07 03:27:16;;;;;;;0.60;0.60;;;;;;;2.00;84.61;96433.59;29373;204;63004;-63
2022/02/07 03:27:47;;;;;;;0.60;0.60;;;;;;;2.01;84.57;96435.22;29373;259;63009;-62
2022/02/07 03:28:21;;;;;;;0.60;0.60;;;;;;;2.01;84.65;96434.41;29373;215;63004;-65
2022/02/07 03:28:53;;;;;;;0.60;0.60;;;;;;;1.93;84.79;96430.31;29373;197;63009;-69
2022/02/07 03:29:26;;;;;;;0.60;0.60;;;;;;;1.86;85.28;96432.34;29373;216;63004;-68
2022/02/07 03:29:57;;;;;;;0.60;0.60;;;;;;;1.85;85.57;96435.28;29373;224;63008;-67
2022/02/07 03:30:28;;;;;;;0.60;0.60;;;;;;;1.84;85.62;96423.75;29373;281;63012;-64
2022/02/07 03:31:00;;;;;;;0.65;0.65;;;;;;;1.92;84.85;96427.88;29371;197;64014;-60
2022/02/07 03:31:31;;;;;;;0.80;0.80;;;;;;;1.94;83.94;96418.53;29371;315;64009;-60
2022/02/07 03:32:04;;;;;;;0.60;0.60;;;;;;;1.98;84.15;96427.69;29373;220;63009;-61
2022/02/07 03:32:35;;;;;;;0.60;0.60;;;;;;;1.99;83.78;96426.63;29371;205;64009;-62
2022/02/07 03:33:07;;;;;;;0.82;0.82;;;;;;;1.99;83.71;96423.97;29373;265;63009;-69
2022/02/07 03:33:38;;;;;;;0.60;0.60;;;;;;;2.03;83.64;96431.50;29373;319;63005;-60
2022/02/07 03:34:10;;;;;;;0.60;0.60;;;;;;;2.06;83.87;96441.69;29373;294;63009;-69
2022/02/07 03:34:43;;;;;;;0.60;0.60;;;;;;;2.03;84.04;96436.84;29373;196;63004;-59
2022/02/07 03:35:15;;;;;;;0.60;0.60;;;;;;;2.03;83.85;96442.19;29372;197;64009;-58
2022/02/07 03:35:50;;;;;;;1.10;1.08;;;;;;;2.01;84.10;96448.59;29373;325;63004;-62
2022/02/07 03:36:29;;;;;;;0.68;0.68;;;;;;;2.04;83.06;96443.81;29373;354;63009;-71
2022/02/07 03:37:00;;;;;;;0.60;0.60;;;;;;;2.01;83.46;96447.78;29373;280;63004;-61
2022/02/07 03:37:32;;;;;;;0.60;0.60;;;;;;;2.05;83.57;96448.09;29371;343;64013;-71
2022/02/07 03:38:06;;;;;;;0.60;0.60;;;;;;;1.99;83.63;96450.72;29373;325;63005;-64
2022/02/07 03:38:38;;;;;;;0.60;0.60;;;;;;;2.01;83.62;96455.81;29373;225;63009;-71
2022/02/07 03:39:10;;;;;;;0.60;0.60;;;;;;;2.01;83.03;96461.16;29373;197;63005;-62
2022/02/07 03:39:41;;;;;;;0.60;0.60;;;;;;;2.04;82.87;96454.50;29373;203;63009;-60
2022/02/07 03:40:13;;;;;;;0.60;0.60;;;;;;;2.06;82.95;96468.44;29373;204;63005;-62
2022/02/07 03:40:44;;;;;;;0.60;0.60;;;;;;;2.08;82.85;96471.69;29373;202;63009;-60
2022/02/07 03:41:15;;;;;;;0.60;0.60;;;;;;;2.11;83.32;96476.53;29373;250;63000;-61
2022/02/07 03:41:46;;;;;;;0.60;0.60;;;;;;;2.12;83.11;96467.44;29371;365;64013;-60
2022/02/07 03:42:19;;;;;;;0.60;0.60;;;;;;;2.13;82.90;96480.56;29373;323;63008;-55
2022/02/07 03:42:50;;;;;;;0.60;0.60;;;;;;;2.14;82.40;96481.38;29373;250;63009;-62
2022/02/07 03:43:23;;;;;;;0.60;0.60;;;;;;;2.12;82.60;96486.16;29373;216;63004;-63
2022/02/07 03:43:55;;;;;;;0.60;0.60;;;;;;;2.13;82.16;96485.09;29373;279;63009;-64
2022/02/07 03:44:26;;;;;;;0.60;0.60;;;;;;;2.09;81.93;96489.34;29373;265;63004;-67
2022/02/07 03:44:58;;;;;;;0.60;0.60;;;;;;;2.03;82.43;96485.81;29371;213;64013;-66
2022/02/07 03:45:30;;;;;;;0.60;0.60;;;;;;;2.04;82.64;96489.31;29373;232;63005;-69
2022/02/07 03:46:02;;;;;;;0.60;0.60;;;;;;;2.07;82.74;96507.53;29373;289;63009;-54
2022/02/07 03:46:34;;;;;;;0.60;0.60;;;;;;;2.09;82.78;96542.88;29373;197;63005;-59
2022/02/07 03:47:06;;;;;;;0.60;0.60;;;;;;;2.13;82.42;96568.09;29373;217;63009;-52